sensor_id;sensor_type;location;lat;lon;timestamp;P1;durP1;ratioP1;P2;durP2;ratioP2
11877;SDS011;5998;42.676;23.268;2023-06-10T00:01:50;32.13;;;27.83;;
11877;SDS011;5998;42.676;23.268;2023-06-10T00:04:16;19.57;;;17.57;;
11877;SDS011;5998;42.676;23.268;2023-06-10T00:06:43;13.93;;;11.03;;
11877;SDS011;5998;42.676;23.268;2023-06-10T00:09:09;12.40;;;9.77;;
11877;SDS011;5998;42.676;23.268;2023-06-10T00:11:36;14.17;;;12.77;;
11877;SDS011;5998;42.676;23.268;2023-06-10T00:14:02;14.07;;;11.93;;
11877;SDS011;5998;42.676;23.268;2023-06-10T00:16:30;16.33;;;13.07;;
11877;SDS011;5998;42.676;23.268;2023-06-10T00:18:58;15.27;;;11.60;;
11877;SDS011;5998;42.676;23.268;2023-06-10T00:21:26;13.97;;;10.90;;
11877;SDS011;5998;42.676;23.268;2023-06-10T00:23:53;12.73;;;11.50;;
11877;SDS011;5998;42.676;23.268;2023-06-10T00:26:20;11.93;;;10.77;;
11877;SDS011;5998;42.676;23.268;2023-06-10T00:28:47;11.40;;;10.30;;
11877;SDS011;5998;42.676;23.268;2023-06-10T00:31:13;19.70;;;17.87;;
11877;SDS011;5998;42.676;23.268;2023-06-10T00:33:41;11.97;;;9.47;;
11877;SDS011;5998;42.676;23.268;2023-06-10T00:36:08;11.97;;;9.90;;
11877;SDS011;5998;42.676;23.268;2023-06-10T00:38:34;10.40;;;9.30;;
11877;SDS011;5998;42.676;23.268;2023-06-10T00:41:01;10.13;;;8.97;;
11877;SDS011;5998;42.676;23.268;2023-06-10T00:43:28;10.37;;;8.67;;
11877;SDS011;5998;42.676;23.268;2023-06-10T00:45:54;9.13;;;8.07;;
11877;SDS011;5998;42.676;23.268;2023-06-10T00:48:21;8.13;;;7.43;;
11877;SDS011;5998;42.676;23.268;2023-06-10T00:50:48;8.20;;;7.47;;
11877;SDS011;5998;42.676;23.268;2023-06-10T00:53:15;9.70;;;7.53;;
11877;SDS011;5998;42.676;23.268;2023-06-10T00:55:41;8.90;;;7.67;;
11877;SDS011;5998;42.676;23.268;2023-06-10T00:58:08;8.67;;;7.87;;
11877;SDS011;5998;42.676;23.268;2023-06-10T01:00:34;9.83;;;7.83;;
11877;SDS011;5998;42.676;23.268;2023-06-10T01:03:01;9.70;;;8.17;;
11877;SDS011;5998;42.676;23.268;2023-06-10T01:05:32;8.27;;;7.47;;
11877;SDS011;5998;42.676;23.268;2023-06-10T01:08:01;9.90;;;7.77;;
11877;SDS011;5998;42.676;23.268;2023-06-10T01:10:33;8.50;;;7.60;;
11877;SDS011;5998;42.676;23.268;2023-06-10T01:13:00;8.57;;;7.50;;
11877;SDS011;5998;42.676;23.268;2023-06-10T01:15:28;10.20;;;8.00;;
11877;SDS011;5998;42.676;23.268;2023-06-10T01:17:55;11.00;;;7.93;;
11877;SDS011;5998;42.676;23.268;2023-06-10T01:20:22;10.30;;;7.87;;
11877;SDS011;5998;42.676;23.268;2023-06-10T01:22:50;9.57;;;7.57;;
11877;SDS011;5998;42.676;23.268;2023-06-10T01:25:19;9.37;;;8.27;;
11877;SDS011;5998;42.676;23.268;2023-06-10T01:27:45;9.77;;;7.90;;
11877;SDS011;5998;42.676;23.268;2023-06-10T01:30:14;8.60;;;7.30;;
11877;SDS011;5998;42.676;23.268;2023-06-10T01:32:43;8.23;;;7.53;;
11877;SDS011;5998;42.676;23.268;2023-06-10T01:35:10;12.43;;;7.10;;
11877;SDS011;5998;42.676;23.268;2023-06-10T01:37:38;12.47;;;6.63;;
11877;SDS011;5998;42.676;23.268;2023-06-10T01:40:07;9.00;;;6.80;;
11877;SDS011;5998;42.676;23.268;2023-06-10T01:42:34;9.23;;;6.37;;
11877;SDS011;5998;42.676;23.268;2023-06-10T01:45:01;7.60;;;6.80;;
11877;SDS011;5998;42.676;23.268;2023-06-10T01:47:27;7.67;;;6.70;;
11877;SDS011;5998;42.676;23.268;2023-06-10T01:49:54;9.53;;;6.77;;
11877;SDS011;5998;42.676;23.268;2023-06-10T01:52:21;7.07;;;6.43;;
11877;SDS011;5998;42.676;23.268;2023-06-10T01:54:47;7.27;;;6.00;;
11877;SDS011;5998;42.676;23.268;2023-06-10T01:57:15;6.80;;;6.20;;
11877;SDS011;5998;42.676;23.268;2023-06-10T01:59:42;7.00;;;6.30;;
11877;SDS011;5998;42.676;23.268;2023-06-10T02:02:09;7.50;;;6.63;;
11877;SDS011;5998;42.676;23.268;2023-06-10T02:04:36;7.17;;;6.23;;
11877;SDS011;5998;42.676;23.268;2023-06-10T02:07:02;7.23;;;6.50;;
11877;SDS011;5998;42.676;23.268;2023-06-10T02:09:29;7.50;;;6.80;;
11877;SDS011;5998;42.676;23.268;2023-06-10T02:11:56;6.53;;;5.93;;
11877;SDS011;5998;42.676;23.268;2023-06-10T02:14:23;8.47;;;6.53;;
11877;SDS011;5998;42.676;23.268;2023-06-10T02:16:50;6.70;;;6.10;;
11877;SDS011;5998;42.676;23.268;2023-06-10T02:19:16;10.40;;;6.23;;
11877;SDS011;5998;42.676;23.268;2023-06-10T02:21:43;7.00;;;6.30;;
11877;SDS011;5998;42.676;23.268;2023-06-10T02:24:10;9.50;;;6.47;;
11877;SDS011;5998;42.676;23.268;2023-06-10T02:26:36;11.77;;;6.53;;
11877;SDS011;5998;42.676;23.268;2023-06-10T02:29:03;7.97;;;6.47;;
11877;SDS011;5998;42.676;23.268;2023-06-10T02:31:31;8.10;;;6.50;;
11877;SDS011;5998;42.676;23.268;2023-06-10T02:33:58;8.80;;;6.40;;
11877;SDS011;5998;42.676;23.268;2023-06-10T02:36:24;8.17;;;6.13;;
11877;SDS011;5998;42.676;23.268;2023-06-10T02:38:53;6.43;;;5.83;;
11877;SDS011;5998;42.676;23.268;2023-06-10T02:41:19;8.40;;;6.23;;
11877;SDS011;5998;42.676;23.268;2023-06-10T02:43:46;7.23;;;6.37;;
11877;SDS011;5998;42.676;23.268;2023-06-10T02:46:13;8.87;;;6.07;;
11877;SDS011;5998;42.676;23.268;2023-06-10T02:48:45;8.40;;;6.40;;
11877;SDS011;5998;42.676;23.268;2023-06-10T02:51:12;13.37;;;6.60;;
11877;SDS011;5998;42.676;23.268;2023-06-10T02:53:38;7.70;;;6.10;;
11877;SDS011;5998;42.676;23.268;2023-06-10T02:56:04;8.70;;;6.20;;
11877;SDS011;5998;42.676;23.268;2023-06-10T02:58:31;7.57;;;6.33;;
11877;SDS011;5998;42.676;23.268;2023-06-10T03:00:57;7.07;;;6.37;;
11877;SDS011;5998;42.676;23.268;2023-06-10T03:03:24;8.00;;;6.70;;
11877;SDS011;5998;42.676;23.268;2023-06-10T03:05:54;8.60;;;7.13;;
11877;SDS011;5998;42.676;23.268;2023-06-10T03:08:21;7.47;;;6.77;;
11877;SDS011;5998;42.676;23.268;2023-06-10T03:10:48;7.57;;;6.37;;
11877;SDS011;5998;42.676;23.268;2023-06-10T03:13:14;6.67;;;6.07;;
11877;SDS011;5998;42.676;23.268;2023-06-10T03:15:41;8.43;;;6.70;;
11877;SDS011;5998;42.676;23.268;2023-06-10T03:18:09;7.00;;;6.40;;
11877;SDS011;5998;42.676;23.268;2023-06-10T03:20:36;8.10;;;6.50;;
11877;SDS011;5998;42.676;23.268;2023-06-10T03:23:04;7.40;;;6.67;;
11877;SDS011;5998;42.676;23.268;2023-06-10T03:25:32;8.27;;;7.47;;
11877;SDS011;5998;42.676;23.268;2023-06-10T03:27:58;9.77;;;8.33;;
11877;SDS011;5998;42.676;23.268;2023-06-10T03:30:25;9.93;;;8.43;;
11877;SDS011;5998;42.676;23.268;2023-06-10T03:32:51;9.90;;;8.97;;
11877;SDS011;5998;42.676;23.268;2023-06-10T03:35:17;10.20;;;9.23;;
11877;SDS011;5998;42.676;23.268;2023-06-10T03:37:44;10.57;;;9.47;;
11877;SDS011;5998;42.676;23.268;2023-06-10T03:40:12;11.20;;;10.00;;
11877;SDS011;5998;42.676;23.268;2023-06-10T03:42:38;11.87;;;9.53;;
11877;SDS011;5998;42.676;23.268;2023-06-10T03:45:05;10.07;;;8.90;;
11877;SDS011;5998;42.676;23.268;2023-06-10T03:47:33;10.87;;;8.93;;
11877;SDS011;5998;42.676;23.268;2023-06-10T03:49:59;9.93;;;9.03;;
11877;SDS011;5998;42.676;23.268;2023-06-10T03:52:26;9.13;;;8.23;;
11877;SDS011;5998;42.676;23.268;2023-06-10T03:54:52;9.00;;;8.10;;
11877;SDS011;5998;42.676;23.268;2023-06-10T03:57:20;9.53;;;8.10;;
11877;SDS011;5998;42.676;23.268;2023-06-10T03:59:46;9.50;;;8.47;;
11877;SDS011;5998;42.676;23.268;2023-06-10T04:02:13;11.77;;;8.77;;
11877;SDS011;5998;42.676;23.268;2023-06-10T04:04:40;9.33;;;8.43;;
11877;SDS011;5998;42.676;23.268;2023-06-10T04:07:06;10.03;;;8.50;;
11877;SDS011;5998;42.676;23.268;2023-06-10T04:09:33;9.33;;;8.33;;
11877;SDS011;5998;42.676;23.268;2023-06-10T04:11:59;9.40;;;8.50;;
11877;SDS011;5998;42.676;23.268;2023-06-10T04:14:28;9.47;;;8.37;;
11877;SDS011;5998;42.676;23.268;2023-06-10T04:16:54;9.37;;;8.57;;
11877;SDS011;5998;42.676;23.268;2023-06-10T04:19:20;9.23;;;8.37;;
11877;SDS011;5998;42.676;23.268;2023-06-10T04:21:47;9.73;;;8.57;;
11877;SDS011;5998;42.676;23.268;2023-06-10T04:24:14;9.37;;;8.43;;
11877;SDS011;5998;42.676;23.268;2023-06-10T04:26:40;10.00;;;8.93;;
11877;SDS011;5998;42.676;23.268;2023-06-10T04:29:06;10.10;;;9.03;;
11877;SDS011;5998;42.676;23.268;2023-06-10T04:31:34;9.87;;;8.77;;
11877;SDS011;5998;42.676;23.268;2023-06-10T04:34:01;10.07;;;8.47;;
11877;SDS011;5998;42.676;23.268;2023-06-10T04:36:27;11.10;;;8.83;;
11877;SDS011;5998;42.676;23.268;2023-06-10T04:38:54;10.47;;;9.47;;
11877;SDS011;5998;42.676;23.268;2023-06-10T04:41:20;14.13;;;8.90;;
11877;SDS011;5998;42.676;23.268;2023-06-10T04:43:47;9.60;;;8.70;;
11877;SDS011;5998;42.676;23.268;2023-06-10T04:46:13;10.67;;;9.43;;
11877;SDS011;5998;42.676;23.268;2023-06-10T04:48:41;10.90;;;9.80;;
11877;SDS011;5998;42.676;23.268;2023-06-10T04:51:09;11.97;;;10.10;;
11877;SDS011;5998;42.676;23.268;2023-06-10T04:53:36;12.60;;;10.43;;
11877;SDS011;5998;42.676;23.268;2023-06-10T04:56:03;12.80;;;10.60;;
11877;SDS011;5998;42.676;23.268;2023-06-10T04:58:29;11.47;;;10.37;;
11877;SDS011;5998;42.676;23.268;2023-06-10T05:00:56;11.40;;;10.30;;
11877;SDS011;5998;42.676;23.268;2023-06-10T05:03:22;10.83;;;9.77;;
11877;SDS011;5998;42.676;23.268;2023-06-10T05:05:50;9.87;;;8.97;;
11877;SDS011;5998;42.676;23.268;2023-06-10T05:08:16;10.83;;;9.70;;
11877;SDS011;5998;42.676;23.268;2023-06-10T05:10:43;9.97;;;9.07;;
11877;SDS011;5998;42.676;23.268;2023-06-10T05:13:09;9.80;;;8.70;;
11877;SDS011;5998;42.676;23.268;2023-06-10T05:15:36;9.43;;;8.60;;
11877;SDS011;5998;42.676;23.268;2023-06-10T05:18:03;9.57;;;8.60;;
11877;SDS011;5998;42.676;23.268;2023-06-10T05:20:29;10.27;;;9.27;;
11877;SDS011;5998;42.676;23.268;2023-06-10T05:22:57;9.93;;;9.03;;
11877;SDS011;5998;42.676;23.268;2023-06-10T05:25:25;10.10;;;9.20;;
11877;SDS011;5998;42.676;23.268;2023-06-10T05:27:51;10.23;;;9.23;;
11877;SDS011;5998;42.676;23.268;2023-06-10T05:30:18;8.03;;;7.27;;
11877;SDS011;5998;42.676;23.268;2023-06-10T05:32:44;7.93;;;7.13;;
11877;SDS011;5998;42.676;23.268;2023-06-10T05:35:11;8.10;;;7.23;;
11877;SDS011;5998;42.676;23.268;2023-06-10T05:37:37;8.03;;;7.23;;
11877;SDS011;5998;42.676;23.268;2023-06-10T05:40:06;8.03;;;7.20;;
11877;SDS011;5998;42.676;23.268;2023-06-10T05:42:32;7.80;;;7.10;;
11877;SDS011;5998;42.676;23.268;2023-06-10T05:44:59;10.30;;;7.27;;
11877;SDS011;5998;42.676;23.268;2023-06-10T05:47:25;8.50;;;7.47;;
11877;SDS011;5998;42.676;23.268;2023-06-10T05:49:52;8.10;;;7.30;;
11877;SDS011;5998;42.676;23.268;2023-06-10T05:52:18;8.23;;;7.53;;
11877;SDS011;5998;42.676;23.268;2023-06-10T05:54:45;8.90;;;7.13;;
11877;SDS011;5998;42.676;23.268;2023-06-10T05:57:13;7.50;;;6.70;;
11877;SDS011;5998;42.676;23.268;2023-06-10T05:59:39;11.07;;;6.77;;
11877;SDS011;5998;42.676;23.268;2023-06-10T06:02:05;9.47;;;6.67;;
11877;SDS011;5998;42.676;23.268;2023-06-10T06:04:32;10.90;;;6.17;;
11877;SDS011;5998;42.676;23.268;2023-06-10T06:06:58;8.07;;;6.30;;
11877;SDS011;5998;42.676;23.268;2023-06-10T06:09:25;9.30;;;6.50;;
11877;SDS011;5998;42.676;23.268;2023-06-10T06:11:52;13.60;;;7.17;;
11877;SDS011;5998;42.676;23.268;2023-06-10T06:14:19;18.70;;;8.87;;
11877;SDS011;5998;42.676;23.268;2023-06-10T06:16:46;22.40;;;10.40;;
11877;SDS011;5998;42.676;23.268;2023-06-10T06:19:12;13.27;;;7.50;;
11877;SDS011;5998;42.676;23.268;2023-06-10T06:21:39;20.63;;;8.00;;
11877;SDS011;5998;42.676;23.268;2023-06-10T06:24:05;13.77;;;6.73;;
11877;SDS011;5998;42.676;23.268;2023-06-10T06:26:32;11.43;;;6.37;;
11877;SDS011;5998;42.676;23.268;2023-06-10T06:28:58;13.90;;;8.03;;
11877;SDS011;5998;42.676;23.268;2023-06-10T06:31:26;9.53;;;7.17;;
11877;SDS011;5998;42.676;23.268;2023-06-10T06:33:53;6.50;;;5.83;;
11877;SDS011;5998;42.676;23.268;2023-06-10T06:36:19;7.10;;;5.63;;
11877;SDS011;5998;42.676;23.268;2023-06-10T06:38:46;9.43;;;6.00;;
11877;SDS011;5998;42.676;23.268;2023-06-10T06:41:12;8.50;;;5.40;;
11877;SDS011;5998;42.676;23.268;2023-06-10T06:43:39;9.63;;;5.80;;
11877;SDS011;5998;42.676;23.268;2023-06-10T06:46:05;12.33;;;6.27;;
11877;SDS011;5998;42.676;23.268;2023-06-10T06:48:33;15.07;;;7.17;;
11877;SDS011;5998;42.676;23.268;2023-06-10T06:50:59;10.43;;;6.13;;
11877;SDS011;5998;42.676;23.268;2023-06-10T06:53:26;9.53;;;6.00;;
11877;SDS011;5998;42.676;23.268;2023-06-10T06:55:52;16.70;;;7.10;;
11877;SDS011;5998;42.676;23.268;2023-06-10T06:58:19;16.73;;;7.67;;
11877;SDS011;5998;42.676;23.268;2023-06-10T07:00:45;5.43;;;4.20;;
11877;SDS011;5998;42.676;23.268;2023-06-10T07:03:12;5.70;;;4.60;;
11877;SDS011;5998;42.676;23.268;2023-06-10T07:05:39;6.03;;;5.00;;
11877;SDS011;5998;42.676;23.268;2023-06-10T07:08:06;8.53;;;5.17;;
11877;SDS011;5998;42.676;23.268;2023-06-10T07:10:32;10.37;;;5.40;;
11877;SDS011;5998;42.676;23.268;2023-06-10T07:12:59;25.73;;;11.03;;
11877;SDS011;5998;42.676;23.268;2023-06-10T07:15:25;21.23;;;9.40;;
11877;SDS011;5998;42.676;23.268;2023-06-10T07:17:52;15.30;;;6.97;;
11877;SDS011;5998;42.676;23.268;2023-06-10T07:20:18;7.97;;;5.80;;
11877;SDS011;5998;42.676;23.268;2023-06-10T07:22:46;6.83;;;5.00;;
11877;SDS011;5998;42.676;23.268;2023-06-10T07:25:12;9.03;;;5.00;;
11877;SDS011;5998;42.676;23.268;2023-06-10T07:27:40;7.73;;;5.60;;
11877;SDS011;5998;42.676;23.268;2023-06-10T07:30:07;4.60;;;4.23;;
11877;SDS011;5998;42.676;23.268;2023-06-10T07:32:34;8.03;;;4.47;;
11877;SDS011;5998;42.676;23.268;2023-06-10T07:35:00;5.63;;;4.40;;
11877;SDS011;5998;42.676;23.268;2023-06-10T07:37:27;5.43;;;4.23;;
11877;SDS011;5998;42.676;23.268;2023-06-10T07:39:54;5.00;;;4.60;;
11877;SDS011;5998;42.676;23.268;2023-06-10T07:42:21;7.83;;;4.93;;
11877;SDS011;5998;42.676;23.268;2023-06-10T07:44:47;5.27;;;4.10;;
11877;SDS011;5998;42.676;23.268;2023-06-10T07:47:14;6.73;;;4.00;;
11877;SDS011;5998;42.676;23.268;2023-06-10T07:49:40;5.30;;;4.10;;
11877;SDS011;5998;42.676;23.268;2023-06-10T07:52:07;4.50;;;4.10;;
11877;SDS011;5998;42.676;23.268;2023-06-10T07:54:34;5.27;;;4.27;;
11877;SDS011;5998;42.676;23.268;2023-06-10T07:57:02;7.57;;;5.50;;
11877;SDS011;5998;42.676;23.268;2023-06-10T07:59:28;8.13;;;4.87;;
11877;SDS011;5998;42.676;23.268;2023-06-10T08:01:55;5.07;;;4.37;;
11877;SDS011;5998;42.676;23.268;2023-06-10T08:04:21;5.77;;;4.13;;
11877;SDS011;5998;42.676;23.268;2023-06-10T08:06:48;8.40;;;4.40;;
11877;SDS011;5998;42.676;23.268;2023-06-10T08:09:14;7.40;;;4.37;;
11877;SDS011;5998;42.676;23.268;2023-06-10T08:11:41;4.57;;;4.17;;
11877;SDS011;5998;42.676;23.268;2023-06-10T08:14:08;5.83;;;3.97;;
11877;SDS011;5998;42.676;23.268;2023-06-10T08:16:35;3.70;;;3.40;;
11877;SDS011;5998;42.676;23.268;2023-06-10T08:19:01;5.90;;;4.40;;
11877;SDS011;5998;42.676;23.268;2023-06-10T08:21:28;4.80;;;4.00;;
11877;SDS011;5998;42.676;23.268;2023-06-10T08:23:54;3.70;;;3.40;;
11877;SDS011;5998;42.676;23.268;2023-06-10T08:26:21;5.60;;;4.30;;
11877;SDS011;5998;42.676;23.268;2023-06-10T08:28:47;4.67;;;4.27;;
11877;SDS011;5998;42.676;23.268;2023-06-10T08:31:15;5.60;;;4.70;;
11877;SDS011;5998;42.676;23.268;2023-06-10T08:33:42;6.03;;;4.10;;
11877;SDS011;5998;42.676;23.268;2023-06-10T08:36:08;5.33;;;3.47;;
11877;SDS011;5998;42.676;23.268;2023-06-10T08:38:35;3.93;;;3.53;;
11877;SDS011;5998;42.676;23.268;2023-06-10T08:41:01;4.10;;;3.70;;
11877;SDS011;5998;42.676;23.268;2023-06-10T08:43:31;6.40;;;4.00;;
11877;SDS011;5998;42.676;23.268;2023-06-10T08:45:59;4.50;;;4.10;;
11877;SDS011;5998;42.676;23.268;2023-06-10T08:48:28;5.00;;;3.97;;
11877;SDS011;5998;42.676;23.268;2023-06-10T08:50:55;5.80;;;3.63;;
11877;SDS011;5998;42.676;23.268;2023-06-10T08:53:22;6.78;;;4.07;;
11877;SDS011;5998;42.676;23.268;2023-06-10T08:55:50;5.95;;;3.72;;
11877;SDS011;5998;42.676;23.268;2023-06-10T08:58:18;4.78;;;4.22;;
11877;SDS011;5998;42.676;23.268;2023-06-10T09:00:45;3.92;;;3.53;;
11877;SDS011;5998;42.676;23.268;2023-06-10T09:03:11;5.38;;;3.95;;
11877;SDS011;5998;42.676;23.268;2023-06-10T09:05:39;3.90;;;3.53;;
11877;SDS011;5998;42.676;23.268;2023-06-10T09:08:07;5.30;;;3.90;;
11877;SDS011;5998;42.676;23.268;2023-06-10T09:10:34;4.53;;;3.80;;
11877;SDS011;5998;42.676;23.268;2023-06-10T09:13:00;4.90;;;3.70;;
11877;SDS011;5998;42.676;23.268;2023-06-10T09:15:27;3.95;;;3.65;;
11877;SDS011;5998;42.676;23.268;2023-06-10T09:17:53;5.35;;;3.78;;
11877;SDS011;5998;42.676;23.268;2023-06-10T09:20:20;3.90;;;3.30;;
11877;SDS011;5998;42.676;23.268;2023-06-10T09:22:47;5.75;;;3.30;;
11877;SDS011;5998;42.676;23.268;2023-06-10T09:25:14;3.50;;;3.00;;
11877;SDS011;5998;42.676;23.268;2023-06-10T09:27:44;4.40;;;3.40;;
11877;SDS011;5998;42.676;23.268;2023-06-10T09:30:20;3.87;;;3.30;;
11877;SDS011;5998;42.676;23.268;2023-06-10T09:32:50;3.67;;;3.37;;
11877;SDS011;5998;42.676;23.268;2023-06-10T09:35:16;6.70;;;3.33;;
11877;SDS011;5998;42.676;23.268;2023-06-10T09:37:43;3.90;;;3.50;;
11877;SDS011;5998;42.676;23.268;2023-06-10T09:40:12;4.82;;;3.40;;
11877;SDS011;5998;42.676;23.268;2023-06-10T09:42:38;4.15;;;3.22;;
11877;SDS011;5998;42.676;23.268;2023-06-10T09:45:06;4.53;;;3.40;;
11877;SDS011;5998;42.676;23.268;2023-06-10T09:47:32;4.53;;;3.35;;
11877;SDS011;5998;42.676;23.268;2023-06-10T09:49:59;3.30;;;3.03;;
11877;SDS011;5998;42.676;23.268;2023-06-10T09:52:27;4.70;;;3.60;;
11877;SDS011;5998;42.676;23.268;2023-06-10T09:54:55;5.60;;;4.10;;
11877;SDS011;5998;42.676;23.268;2023-06-10T09:57:26;6.63;;;3.40;;
11877;SDS011;5998;42.676;23.268;2023-06-10T09:59:57;4.28;;;3.58;;
11877;SDS011;5998;42.676;23.268;2023-06-10T10:02:24;3.83;;;3.53;;
11877;SDS011;5998;42.676;23.268;2023-06-10T10:04:50;4.70;;;3.72;;
11877;SDS011;5998;42.676;23.268;2023-06-10T10:07:16;5.82;;;4.40;;
11877;SDS011;5998;42.676;23.268;2023-06-10T10:09:43;4.43;;;4.03;;
11877;SDS011;5998;42.676;23.268;2023-06-10T10:12:10;6.03;;;3.40;;
11877;SDS011;5998;42.676;23.268;2023-06-10T10:14:39;5.10;;;3.65;;
11877;SDS011;5998;42.676;23.268;2023-06-10T10:17:07;5.22;;;3.88;;
11877;SDS011;5998;42.676;23.268;2023-06-10T10:19:36;4.38;;;3.60;;
11877;SDS011;5998;42.676;23.268;2023-06-10T10:22:06;4.85;;;3.70;;
11877;SDS011;5998;42.676;23.268;2023-06-10T10:24:35;4.13;;;3.70;;
11877;SDS011;5998;42.676;23.268;2023-06-10T10:27:04;4.22;;;3.63;;
11877;SDS011;5998;42.676;23.268;2023-06-10T10:29:33;4.00;;;3.70;;
11877;SDS011;5998;42.676;23.268;2023-06-10T10:32:05;7.85;;;3.60;;
11877;SDS011;5998;42.676;23.268;2023-06-10T10:34:34;9.93;;;4.22;;
11877;SDS011;5998;42.676;23.268;2023-06-10T10:37:02;4.18;;;3.78;;
11877;SDS011;5998;42.676;23.268;2023-06-10T10:39:28;3.50;;;3.20;;
11877;SDS011;5998;42.676;23.268;2023-06-10T10:41:56;3.60;;;3.30;;
11877;SDS011;5998;42.676;23.268;2023-06-10T10:44:23;3.40;;;3.10;;
11877;SDS011;5998;42.676;23.268;2023-06-10T10:46:50;4.03;;;3.45;;
11877;SDS011;5998;42.676;23.268;2023-06-10T10:49:18;3.47;;;3.28;;
11877;SDS011;5998;42.676;23.268;2023-06-10T10:51:54;3.38;;;3.08;;
11877;SDS011;5998;42.676;23.268;2023-06-10T10:54:27;3.25;;;2.95;;
11877;SDS011;5998;42.676;23.268;2023-06-10T10:57:09;3.42;;;3.13;;
11877;SDS011;5998;42.676;23.268;2023-06-10T10:59:43;3.85;;;3.38;;
11877;SDS011;5998;42.676;23.268;2023-06-10T11:02:09;4.45;;;3.30;;
11877;SDS011;5998;42.676;23.268;2023-06-10T11:04:37;3.28;;;3.08;;
11877;SDS011;5998;42.676;23.268;2023-06-10T11:07:05;5.60;;;3.28;;
11877;SDS011;5998;42.676;23.268;2023-06-10T11:09:32;5.97;;;3.38;;
11877;SDS011;5998;42.676;23.268;2023-06-10T11:11:59;3.67;;;3.22;;
11877;SDS011;5998;42.676;23.268;2023-06-10T11:14:28;3.70;;;3.40;;
11877;SDS011;5998;42.676;23.268;2023-06-10T11:16:56;3.60;;;2.88;;
11877;SDS011;5998;42.676;23.268;2023-06-10T11:19:32;3.97;;;3.30;;
11877;SDS011;5998;42.676;23.268;2023-06-10T11:22:01;3.95;;;3.40;;
11877;SDS011;5998;42.676;23.268;2023-06-10T11:24:28;4.20;;;3.80;;
11877;SDS011;5998;42.676;23.268;2023-06-10T11:26:55;4.13;;;3.80;;
11877;SDS011;5998;42.676;23.268;2023-06-10T11:29:44;5.50;;;3.30;;
11877;SDS011;5998;42.676;23.268;2023-06-10T11:32:20;3.78;;;3.47;;
11877;SDS011;5998;42.676;23.268;2023-06-10T11:34:51;3.78;;;3.38;;
11877;SDS011;5998;42.676;23.268;2023-06-10T11:37:19;8.70;;;3.33;;
11877;SDS011;5998;42.676;23.268;2023-06-10T11:39:45;3.38;;;3.13;;
11877;SDS011;5998;42.676;23.268;2023-06-10T11:42:12;3.25;;;3.05;;
11877;SDS011;5998;42.676;23.268;2023-06-10T11:44:38;4.07;;;3.40;;
11877;SDS011;5998;42.676;23.268;2023-06-10T11:47:13;5.05;;;3.88;;
11877;SDS011;5998;42.676;23.268;2023-06-10T11:49:39;4.45;;;3.83;;
11877;SDS011;5998;42.676;23.268;2023-06-10T11:52:06;9.30;;;3.93;;
11877;SDS011;5998;42.676;23.268;2023-06-10T11:54:34;5.82;;;4.00;;
11877;SDS011;5998;42.676;23.268;2023-06-10T11:57:00;3.90;;;3.60;;
11877;SDS011;5998;42.676;23.268;2023-06-10T11:59:28;3.90;;;3.60;;
11877;SDS011;5998;42.676;23.268;2023-06-10T12:01:55;3.80;;;3.50;;
11877;SDS011;5998;42.676;23.268;2023-06-10T12:04:21;4.57;;;3.67;;
11877;SDS011;5998;42.676;23.268;2023-06-10T12:06:48;4.82;;;3.75;;
11877;SDS011;5998;42.676;23.268;2023-06-10T12:09:18;3.85;;;3.55;;
11877;SDS011;5998;42.676;23.268;2023-06-10T12:11:48;4.13;;;3.70;;
11877;SDS011;5998;42.676;23.268;2023-06-10T12:14:14;5.07;;;3.90;;
11877;SDS011;5998;42.676;23.268;2023-06-10T12:16:47;5.13;;;4.28;;
11877;SDS011;5998;42.676;23.268;2023-06-10T12:19:14;4.18;;;3.70;;
11877;SDS011;5998;42.676;23.268;2023-06-10T12:21:41;4.22;;;3.47;;
11877;SDS011;5998;42.676;23.268;2023-06-10T12:24:08;4.68;;;3.53;;
11877;SDS011;5998;42.676;23.268;2023-06-10T12:26:35;3.75;;;3.45;;
11877;SDS011;5998;42.676;23.268;2023-06-10T12:29:03;5.05;;;3.90;;
11877;SDS011;5998;42.676;23.268;2023-06-10T12:31:51;3.27;;;2.70;;
11877;SDS011;5998;42.676;23.268;2023-06-10T12:34:18;4.23;;;3.77;;
11877;SDS011;5998;42.676;23.268;2023-06-10T12:36:47;3.93;;;3.57;;
11877;SDS011;5998;42.676;23.268;2023-06-10T12:39:13;4.67;;;3.80;;
11877;SDS011;5998;42.676;23.268;2023-06-10T12:41:40;3.97;;;3.57;;
11877;SDS011;5998;42.676;23.268;2023-06-10T12:44:08;3.90;;;3.60;;
11877;SDS011;5998;42.676;23.268;2023-06-10T12:46:35;3.97;;;3.67;;
11877;SDS011;5998;42.676;23.268;2023-06-10T12:49:02;4.03;;;3.53;;
11877;SDS011;5998;42.676;23.268;2023-06-10T12:51:28;3.63;;;3.33;;
11877;SDS011;5998;42.676;23.268;2023-06-10T12:53:55;3.73;;;3.43;;
11877;SDS011;5998;42.676;23.268;2023-06-10T12:56:21;3.60;;;3.30;;
11877;SDS011;5998;42.676;23.268;2023-06-10T12:58:49;7.13;;;3.60;;
11877;SDS011;5998;42.676;23.268;2023-06-10T13:01:16;3.97;;;3.57;;
11877;SDS011;5998;42.676;23.268;2023-06-10T13:03:43;4.13;;;3.77;;
11877;SDS011;5998;42.676;23.268;2023-06-10T13:06:09;3.87;;;3.27;;
11877;SDS011;5998;42.676;23.268;2023-06-10T13:08:36;5.07;;;3.90;;
11877;SDS011;5998;42.676;23.268;2023-06-10T13:11:03;3.50;;;3.07;;
11877;SDS011;5998;42.676;23.268;2023-06-10T13:13:29;7.87;;;3.50;;
11877;SDS011;5998;42.676;23.268;2023-06-10T13:15:56;5.83;;;3.73;;
11877;SDS011;5998;42.676;23.268;2023-06-10T13:18:24;6.67;;;3.70;;
11877;SDS011;5998;42.676;23.268;2023-06-10T13:20:51;8.07;;;4.00;;
11877;SDS011;5998;42.676;23.268;2023-06-10T13:23:17;6.03;;;3.97;;
11877;SDS011;5998;42.676;23.268;2023-06-10T13:25:43;9.37;;;4.53;;
11877;SDS011;5998;42.676;23.268;2023-06-10T13:28:10;9.67;;;4.30;;
11877;SDS011;5998;42.676;23.268;2023-06-10T13:30:37;8.93;;;4.10;;
11877;SDS011;5998;42.676;23.268;2023-06-10T13:33:03;6.97;;;4.20;;
11877;SDS011;5998;42.676;23.268;2023-06-10T13:35:31;7.33;;;4.47;;
11877;SDS011;5998;42.676;23.268;2023-06-10T13:37:58;9.57;;;4.07;;
11877;SDS011;5998;42.676;23.268;2023-06-10T13:40:24;8.20;;;4.30;;
11877;SDS011;5998;42.676;23.268;2023-06-10T13:42:51;5.27;;;4.70;;
11877;SDS011;5998;42.676;23.268;2023-06-10T13:45:19;5.33;;;4.47;;
11877;SDS011;5998;42.676;23.268;2023-06-10T13:47:45;4.77;;;4.33;;
11877;SDS011;5998;42.676;23.268;2023-06-10T13:50:12;5.13;;;4.30;;
11877;SDS011;5998;42.676;23.268;2023-06-10T13:52:40;5.27;;;4.00;;
11877;SDS011;5998;42.676;23.268;2023-06-10T13:55:07;5.13;;;4.20;;
11877;SDS011;5998;42.676;23.268;2023-06-10T13:57:33;7.83;;;4.53;;
11877;SDS011;5998;42.676;23.268;2023-06-10T14:00:00;5.53;;;4.10;;
11877;SDS011;5998;42.676;23.268;2023-06-10T14:02:26;6.37;;;5.00;;
11877;SDS011;5998;42.676;23.268;2023-06-10T14:04:53;4.63;;;4.23;;
11877;SDS011;5998;42.676;23.268;2023-06-10T14:07:19;4.90;;;4.50;;
11877;SDS011;5998;42.676;23.268;2023-06-10T14:09:47;5.43;;;4.40;;
11877;SDS011;5998;42.676;23.268;2023-06-10T14:12:13;5.07;;;4.57;;
11877;SDS011;5998;42.676;23.268;2023-06-10T14:14:40;4.27;;;3.97;;
11877;SDS011;5998;42.676;23.268;2023-06-10T14:17:06;5.30;;;4.67;;
11877;SDS011;5998;42.676;23.268;2023-06-10T14:19:33;13.37;;;5.00;;
11877;SDS011;5998;42.676;23.268;2023-06-10T14:21:59;4.43;;;4.03;;
11877;SDS011;5998;42.676;23.268;2023-06-10T14:24:26;7.83;;;3.97;;
11877;SDS011;5998;42.676;23.268;2023-06-10T14:26:53;4.73;;;4.13;;
11877;SDS011;5998;42.676;23.268;2023-06-10T14:29:20;5.10;;;3.80;;
11877;SDS011;5998;42.676;23.268;2023-06-10T14:31:47;5.60;;;3.70;;
11877;SDS011;5998;42.676;23.268;2023-06-10T14:34:13;4.47;;;3.70;;
11877;SDS011;5998;42.676;23.268;2023-06-10T14:36:39;4.80;;;3.80;;
11877;SDS011;5998;42.676;23.268;2023-06-10T14:39:06;4.00;;;3.60;;
11877;SDS011;5998;42.676;23.268;2023-06-10T14:41:32;6.57;;;3.90;;
11877;SDS011;5998;42.676;23.268;2023-06-10T14:44:00;6.13;;;3.83;;